createdAt,value
2023-02-25T02:19:55.938Z,95.04
2023-02-25T02:20:55.969Z,92.59
2023-02-25T02:21:56.003Z,93.28
2023-02-25T02:22:56.052Z,93.46
2023-02-25T02:23:56.038Z,92.76
2023-02-25T02:24:56.060Z,92.70
2023-02-25T02:25:56.109Z,92.85
2023-02-25T02:26:56.150Z,92.71
2023-02-25T02:27:56.179Z,95.91
2023-02-25T02:28:56.179Z,93.88
2023-02-25T02:29:56.217Z,96.98
2023-02-25T02:30:56.315Z,94.53
2023-02-25T02:31:56.400Z,93.37
2023-02-25T02:32:56.302Z,94.32
2023-02-25T02:33:56.330Z,93.90
2023-02-25T02:34:56.380Z,91.75
2023-02-25T02:35:56.393Z,94.14
2023-02-25T02:36:56.439Z,92.31
2023-02-25T02:37:56.449Z,95.33
2023-02-25T02:38:56.470Z,94.33
2023-02-25T02:39:56.514Z,91.39
2023-02-25T02:40:56.546Z,92.04
2023-02-25T02:41:56.571Z,92.91
2023-02-25T02:42:56.598Z,93.32
2023-02-25T02:43:56.636Z,91.83
2023-02-25T02:44:56.676Z,91.66
2023-02-25T02:45:56.728Z,92.03
2023-02-25T02:46:56.706Z,92.27
2023-02-25T02:47:56.724Z,93.34
2023-02-25T02:48:56.764Z,91.98
2023-02-25T02:49:56.786Z,95.30
2023-02-25T02:50:57.794Z,90.94
2023-02-25T02:51:56.847Z,93.17
2023-02-25T02:52:57.303Z,91.22
2023-02-25T02:53:56.892Z,93.11
2023-02-25T02:54:56.923Z,92.22
2023-02-25T02:55:56.933Z,91.23
2023-02-25T02:56:56.979Z,90.77
2023-02-25T02:57:57.028Z,88.90
2023-02-25T02:58:57.046Z,92.23
2023-02-25T02:59:57.068Z,95.01
2023-02-25T03:00:57.114Z,94.04
2023-02-25T03:09:57.358Z,94.21
2023-02-25T03:10:57.365Z,93.59
2023-02-25T03:11:57.397Z,96.40
2023-02-25T03:12:57.401Z,92.77
2023-02-25T03:13:57.397Z,91.59
2023-02-25T03:14:57.412Z,91.72
2023-02-25T03:15:57.481Z,93.40
2023-02-25T03:16:57.466Z,92.73
2023-02-25T03:17:57.535Z,93.53
2023-02-25T03:18:57.459Z,93.12
2023-02-25T03:19:57.479Z,93.83
2023-02-25T03:20:57.502Z,93.23
2023-02-25T03:21:58.304Z,95.23
2023-02-25T03:22:57.561Z,91.87
2023-02-25T03:23:57.593Z,93.45
2023-02-25T03:24:57.614Z,91.56
2023-02-25T03:25:57.632Z,93.22
2023-02-25T03:26:57.643Z,91.81
2023-02-25T03:27:57.736Z,91.39
2023-02-25T03:28:57.696Z,91.68
2023-02-25T03:29:57.702Z,90.95
2023-02-25T03:30:57.777Z,91.31
2023-02-25T03:31:57.887Z,92.73
2023-02-25T03:32:57.778Z,93.42
2023-02-25T03:33:57.808Z,93.67
2023-02-25T03:34:57.841Z,89.67
2023-02-25T03:35:57.860Z,92.40
2023-02-25T03:36:57.877Z,92.54
2023-02-25T03:37:57.906Z,91.28
2023-02-25T03:38:57.938Z,93.06
2023-02-25T03:39:58.040Z,93.30
2023-02-25T03:40:57.972Z,92.72
2023-02-25T03:41:57.996Z,92.07
2023-02-25T03:42:58.023Z,92.78
2023-02-25T03:43:58.054Z,93.15
2023-02-25T03:44:58.080Z,92.45
2023-02-25T03:45:58.189Z,92.06
2023-02-25T03:46:58.163Z,94.28
2023-02-25T03:47:58.173Z,94.56
2023-02-25T03:48:58.263Z,94.05
2023-02-25T03:49:58.248Z,93.75
2023-02-25T03:50:58.375Z,93.76
2023-02-25T03:51:58.300Z,93.21
2023-02-25T03:52:58.330Z,91.84
2023-02-25T03:53:58.358Z,92.47
2023-02-25T03:54:58.393Z,92.52
2023-02-25T03:55:58.432Z,93.35
2023-02-25T03:56:58.514Z,92.44
2023-02-25T03:57:58.504Z,93.12
2023-02-25T03:58:58.543Z,93.42
2023-02-25T03:59:58.640Z,91.72
2023-02-25T04:00:58.684Z,93.37
2023-02-25T04:01:58.720Z,93.77
2023-02-25T04:02:58.667Z,93.68
2023-02-25T04:03:58.704Z,91.78
2023-02-25T04:04:58.768Z,92.33
2023-02-25T04:05:58.773Z,90.85
2023-02-25T04:06:58.805Z,94.83
2023-02-25T04:07:58.840Z,93.25
2023-02-25T04:08:58.862Z,93.68
2023-02-25T04:09:58.968Z,92.75
2023-02-25T04:10:58.927Z,91.70
2023-02-25T04:11:58.964Z,92.02
2023-02-25T04:12:58.992Z,92.24
2023-02-25T04:13:59.097Z,91.43
2023-02-25T04:14:59.095Z,90.28
2023-02-25T04:15:59.248Z,91.76
2023-02-25T04:16:59.121Z,90.44
2023-02-25T04:17:59.149Z,94.32
2023-02-25T04:18:59.188Z,90.55
2023-02-25T04:19:59.214Z,92.45
2023-02-25T04:20:59.240Z,92.12
2023-02-25T04:21:59.284Z,91.76
2023-02-25T04:22:59.309Z,93.88
2023-02-25T04:23:59.334Z,92.31
2023-02-25T04:24:59.359Z,93.09
2023-02-25T04:25:59.393Z,92.99
2023-02-25T04:27:00.332Z,91.99
2023-02-25T04:27:59.515Z,92.66
2023-02-25T04:28:59.502Z,94.44
2023-02-25T04:29:59.534Z,92.91
2023-02-25T06:18:02.755Z,90.64
2023-02-25T06:19:02.804Z,91.54
2023-02-25T06:25:03.005Z,87.76
2023-02-25T06:26:03.025Z,89.81
2023-02-25T06:27:03.056Z,89.60
2023-02-25T06:28:03.089Z,88.77
2023-02-25T06:29:03.118Z,88.66
2023-02-25T06:30:03.181Z,88.39
2023-02-25T06:31:03.299Z,88.45
2023-02-25T06:45:03.601Z,87.62
2023-02-25T10:08:06.506Z,80.99
2023-02-25T10:09:06.446Z,82.24
2023-02-25T10:19:06.986Z,80.73
2023-02-25T10:20:05.994Z,79.54
2023-02-25T10:21:06.034Z,79.02
2023-02-25T10:22:06.055Z,80.28
2023-02-25T10:23:06.086Z,79.27
2023-02-25T10:24:06.115Z,78.60
2023-02-25T10:25:06.141Z,79.75
2023-02-25T10:26:06.172Z,78.28
2023-02-25T10:27:06.201Z,78.06
2023-02-25T10:28:06.224Z,81.06
2023-02-25T10:29:06.240Z,77.97
2023-02-25T10:30:06.285Z,77.78
2023-02-25T10:31:06.367Z,78.44
2023-02-25T10:32:06.432Z,77.63
2023-02-25T10:33:06.353Z,79.72
2023-02-25T10:34:06.385Z,79.82
2023-02-25T10:35:06.413Z,77.44
2023-02-25T10:36:06.438Z,77.77
2023-02-25T10:37:06.466Z,78.69
2023-02-25T10:38:06.491Z,77.20
2023-02-25T10:39:06.535Z,78.22
2023-02-25T10:40:06.564Z,78.91
2023-02-25T10:41:06.588Z,77.66
2023-02-25T10:42:06.610Z,77.44
2023-02-25T10:43:06.638Z,78.02
2023-02-25T10:44:06.664Z,77.45
2023-02-25T10:50:06.998Z,77.42
2023-02-25T10:55:07.128Z,80.40
2023-02-25T11:24:07.811Z,74.16
2023-02-25T11:42:08.163Z,76.71
2023-02-25T11:45:08.212Z,76.17
2023-02-25T11:49:08.280Z,73.98
2023-02-25T11:50:08.289Z,74.87
2023-02-25T11:51:08.321Z,73.51
2023-02-25T11:52:08.334Z,76.99
2023-02-25T11:53:08.348Z,76.07
2023-02-25T11:54:08.362Z,76.70
2023-02-25T11:55:09.065Z,75.20
2023-02-25T11:56:08.392Z,74.41
2023-02-25T11:57:08.418Z,74.85
2023-02-25T11:58:08.415Z,73.47
2023-02-25T11:59:08.426Z,76.05
2023-02-25T12:00:08.432Z,73.12
2023-02-25T12:02:08.456Z,75.27
2023-02-25T12:03:08.545Z,76.48
2023-02-25T12:04:08.480Z,76.10
2023-02-25T12:05:08.619Z,74.80
2023-02-25T12:07:08.527Z,75.38
2023-02-25T12:08:14.576Z,73.31
2023-02-25T12:10:08.440Z,73.98
2023-02-25T12:11:08.407Z,74.17
2023-02-25T12:12:08.365Z,75.17
2023-02-25T12:13:08.344Z,75.38
2023-02-25T12:14:08.291Z,76.63
2023-02-25T12:15:08.987Z,75.65
2023-02-25T12:16:08.415Z,77.33
2023-02-25T12:17:08.181Z,74.06
2023-02-25T12:18:08.156Z,75.30
2023-02-25T12:19:08.112Z,73.93
2023-02-25T12:20:08.059Z,74.97
2023-02-25T12:21:08.017Z,74.72
2023-02-25T12:22:08.025Z,72.35
2023-02-25T12:23:08.037Z,72.77
2023-02-25T12:24:08.036Z,73.73
2023-02-25T12:25:08.046Z,75.27
2023-02-25T12:26:08.056Z,71.03
2023-02-25T12:27:08.063Z,72.86
2023-02-25T12:28:08.145Z,74.47
2023-02-25T12:29:08.077Z,74.41
2023-02-25T12:30:08.073Z,70.75
2023-02-25T12:31:08.123Z,75.29
2023-02-25T12:32:08.146Z,75.42
2023-02-25T12:33:08.182Z,74.96
2023-02-25T12:58:08.329Z,73.92
2023-02-25T12:59:08.339Z,70.46
2023-02-25T13:00:08.345Z,69.85
2023-02-25T13:01:08.398Z,73.91
2023-02-25T13:02:08.444Z,68.99
2023-02-25T13:04:08.452Z,72.43
2023-02-25T13:05:08.393Z,73.54
2023-02-25T13:06:08.411Z,67.91
2023-02-25T13:07:08.424Z,68.74
2023-02-25T13:08:08.460Z,70.55
2023-02-25T13:09:08.456Z,71.86
2023-02-25T13:10:08.474Z,71.38
2023-02-25T13:11:08.467Z,70.69
2023-02-25T13:12:11.802Z,73.10
2023-02-25T13:13:08.446Z,74.04
2023-02-25T13:14:08.413Z,71.83
2023-02-25T13:15:08.384Z,72.00
2023-02-25T13:16:08.374Z,71.28
2023-02-25T13:17:08.303Z,72.05
2023-02-25T13:18:08.267Z,73.11
2023-02-25T13:19:08.285Z,71.97
2023-02-25T13:20:08.188Z,72.65
2023-02-25T13:21:08.152Z,73.62
2023-02-25T13:22:08.115Z,70.28
2023-02-25T13:23:09.091Z,73.44
2023-02-25T13:24:08.034Z,72.82
2023-02-25T13:25:08.019Z,73.96
2023-02-25T13:26:07.967Z,73.30
2023-02-25T13:27:07.934Z,70.83
2023-02-25T13:28:07.906Z,69.02
2023-02-25T13:29:07.870Z,70.97
2023-02-25T13:30:07.820Z,70.71
2023-02-25T13:31:07.783Z,70.10
2023-02-25T13:32:07.836Z,70.54
2023-02-25T13:33:07.745Z,68.66
2023-02-25T13:34:07.695Z,71.12
2023-02-25T13:35:07.652Z,70.76
2023-02-25T13:36:07.617Z,70.46
2023-02-25T13:37:07.570Z,68.20
2023-02-25T13:38:07.540Z,70.04
2023-02-25T13:39:07.499Z,71.54
2023-02-25T13:40:07.478Z,70.09
2023-02-25T13:41:07.437Z,67.70
2023-02-25T13:42:07.396Z,69.18
2023-02-25T13:43:07.369Z,70.74
2023-02-25T13:44:07.329Z,71.45
2023-02-25T13:45:07.285Z,70.51
2023-02-25T13:46:07.275Z,69.90
2023-02-25T13:47:07.219Z,66.71
2023-02-25T13:48:07.186Z,67.21
2023-02-25T13:49:07.207Z,68.82
2023-02-25T13:50:07.216Z,70.56
2023-02-25T13:51:07.243Z,68.76
2023-02-25T13:52:07.337Z,67.43
2023-02-25T13:53:07.271Z,68.50
2023-02-25T13:54:07.283Z,69.09
2023-02-25T13:55:07.303Z,67.50
2023-02-25T13:56:07.328Z,68.51
2023-02-25T13:57:07.333Z,67.93
2023-02-25T13:58:07.348Z,70.67
2023-02-25T13:59:07.373Z,67.25
2023-02-25T14:00:07.391Z,68.31
2023-02-25T14:01:07.439Z,68.44
2023-02-25T14:02:07.426Z,68.88
2023-02-25T14:03:07.430Z,66.96
2023-02-25T14:04:07.447Z,67.55
2023-02-25T14:05:07.483Z,69.65
2023-02-25T14:16:07.746Z,67.37
2023-02-25T14:18:07.705Z,67.43
2023-02-25T14:19:07.714Z,68.19
2023-02-25T14:20:07.753Z,68.06
2023-02-25T14:21:07.753Z,67.74
2023-02-25T14:22:07.774Z,66.99
2023-02-25T14:23:07.818Z,66.59
2023-02-25T14:24:07.900Z,67.45
2023-02-25T14:25:07.850Z,66.37
2023-02-25T14:26:07.849Z,69.05
2023-02-25T14:27:07.876Z,66.14
2023-02-25T14:28:07.889Z,66.96
2023-02-25T14:29:07.905Z,66.67
2023-02-25T14:30:08.010Z,69.53
2023-02-25T14:31:08.095Z,66.31
2023-02-25T14:32:08.062Z,69.56
2023-02-25T14:33:08.021Z,68.80
2023-02-25T14:34:08.046Z,69.91
2023-02-25T15:17:09.157Z,62.18
2023-02-25T15:18:09.182Z,63.65
2023-02-25T15:19:09.217Z,66.84
2023-02-25T15:20:09.271Z,63.64
2023-02-25T15:21:09.290Z,65.09
2023-02-25T17:27:11.780Z,57.23
2023-02-25T17:28:11.736Z,56.72
2023-02-25T17:29:11.694Z,55.17
2023-02-25T17:30:11.673Z,56.71
2023-02-25T17:31:11.679Z,56.26
2023-02-25T17:32:11.625Z,57.29
2023-02-25T17:33:11.573Z,53.27
2023-02-25T17:34:11.534Z,58.25
2023-02-25T18:00:10.732Z,53.22
2023-02-25T18:01:10.778Z,54.00
2023-02-25T18:02:10.671Z,55.55
2023-02-25T18:03:10.611Z,54.21
2023-02-25T18:04:10.582Z,52.99
2023-02-25T18:05:10.544Z,55.73
2023-02-25T18:06:10.557Z,57.84
2023-02-25T18:07:10.515Z,54.42
2023-02-25T18:08:10.450Z,55.00
2023-02-25T18:09:10.409Z,53.91
2023-02-25T18:10:10.389Z,53.97
2023-02-25T18:11:10.353Z,53.23
2023-02-25T18:12:10.309Z,51.08
2023-02-25T18:13:10.296Z,55.10
2023-02-25T18:14:10.257Z,58.19
2023-02-25T18:15:10.218Z,54.25
2023-02-25T18:16:10.235Z,54.19
2023-02-25T18:17:10.168Z,54.05
2023-02-25T18:18:10.625Z,53.45
2023-02-25T18:19:10.110Z,55.83
2023-02-25T18:20:10.080Z,52.81
2023-02-25T18:21:10.124Z,53.92
2023-02-25T18:22:10.039Z,52.89
2023-02-25T18:23:10.013Z,53.27
2023-02-25T18:24:09.985Z,53.83
2023-02-25T18:25:09.959Z,52.23
2023-02-25T18:26:09.933Z,50.74
2023-02-25T18:27:09.903Z,52.62
2023-02-25T18:28:09.911Z,53.50
2023-02-25T18:29:09.855Z,53.82
2023-02-25T18:30:09.850Z,51.58
2023-02-25T18:31:09.952Z,52.61
2023-02-25T18:32:12.181Z,53.18
2023-02-25T18:33:09.792Z,55.93
2023-02-25T18:34:09.733Z,54.49
2023-02-25T18:35:09.706Z,53.04
2023-02-25T18:36:09.651Z,52.88
2023-02-25T18:37:09.622Z,54.49
2023-02-25T18:38:09.599Z,52.45
2023-02-25T18:39:09.572Z,52.41
2023-02-25T18:40:09.528Z,50.17
2023-02-25T18:41:09.491Z,53.83
2023-02-25T18:42:10.178Z,50.47
2023-02-25T18:43:09.454Z,53.56
2023-02-25T18:44:09.423Z,54.12
2023-02-25T18:45:09.393Z,53.60
2023-02-25T18:46:09.389Z,52.58
2023-02-25T18:47:09.323Z,52.29
2023-02-25T18:48:09.290Z,52.31
2023-02-25T18:49:09.267Z,52.50
2023-02-25T18:50:09.223Z,52.03
2023-02-25T18:51:09.249Z,53.64
2023-02-25T18:52:09.201Z,53.02
2023-02-25T18:53:09.123Z,52.95
2023-02-25T18:54:09.098Z,50.69
2023-02-25T18:55:09.054Z,52.12
2023-02-25T18:56:09.018Z,51.39
2023-02-25T18:57:08.986Z,52.44
2023-02-25T18:58:08.952Z,50.84
2023-02-25T18:59:09.031Z,49.99
2023-02-25T19:00:08.893Z,51.56
2023-02-25T19:01:08.904Z,53.18
2023-02-25T19:02:08.868Z,54.27
2023-02-25T19:03:11.219Z,51.20
2023-02-25T19:04:08.784Z,51.41
2023-02-25T19:05:08.756Z,51.57
2023-02-25T19:06:08.722Z,52.27
2023-02-25T19:07:08.699Z,51.50
2023-02-25T19:08:08.675Z,50.89
2023-02-25T19:09:09.146Z,50.92
2023-02-25T19:10:08.634Z,52.93
2023-02-25T19:11:08.589Z,53.13
2023-02-25T19:12:08.563Z,51.12
2023-02-25T19:13:08.535Z,54.49
2023-02-25T19:14:08.536Z,54.01
2023-02-25T19:15:08.561Z,51.09
2023-02-25T19:16:08.491Z,49.97
2023-02-25T19:17:08.396Z,51.19
2023-02-25T19:18:08.413Z,52.95
2023-02-25T19:19:08.342Z,50.54
2023-02-25T19:20:08.302Z,50.19
2023-02-25T19:21:08.327Z,48.04
2023-02-25T19:22:08.230Z,51.12
2023-02-25T19:23:08.205Z,51.34
2023-02-25T19:24:08.183Z,50.70
2023-02-25T19:25:08.165Z,51.09
2023-02-25T19:26:08.136Z,50.55
2023-02-25T19:27:08.098Z,46.95
2023-02-25T19:28:08.077Z,52.42
2023-02-25T19:29:08.648Z,52.31
2023-02-25T19:30:08.090Z,52.43
2023-02-25T19:31:08.177Z,48.84
2023-02-25T19:32:08.031Z,50.87
2023-02-25T19:33:07.948Z,51.38
2023-02-25T19:34:07.929Z,50.18
2023-02-25T19:35:07.909Z,50.72
2023-02-25T19:36:07.899Z,52.35
2023-02-25T19:37:07.867Z,49.29
2023-02-25T19:38:07.939Z,52.13
2023-02-25T19:39:07.821Z,52.14
2023-02-25T19:40:07.796Z,50.83
2023-02-25T19:41:07.796Z,48.42
2023-02-25T19:42:07.756Z,49.38
2023-02-25T19:43:07.737Z,48.81
2023-02-25T19:44:07.733Z,48.89
2023-02-25T19:45:07.713Z,49.43
2023-02-25T19:46:07.678Z,49.24
2023-02-25T19:47:07.638Z,49.08
2023-02-25T19:48:07.633Z,46.25
2023-02-25T19:49:07.616Z,49.41
2023-02-25T19:50:07.659Z,49.60
2023-02-25T19:51:07.563Z,50.72
2023-02-25T19:52:07.610Z,51.58
2023-02-25T19:53:07.505Z,47.46
2023-02-25T19:54:07.479Z,46.97
2023-02-25T19:55:07.469Z,47.63
2023-02-25T19:56:07.579Z,49.47
2023-02-25T19:57:07.401Z,48.60
2023-02-25T19:58:07.440Z,49.92
2023-02-25T19:59:07.355Z,51.21
2023-02-25T20:00:08.795Z,50.27
2023-02-25T20:01:07.366Z,49.93
2023-02-25T20:02:07.281Z,48.00
2023-02-25T20:03:07.332Z,50.63
2023-02-25T20:04:07.302Z,47.87
2023-02-25T20:05:07.214Z,51.48
2023-02-25T20:06:07.194Z,48.10
2023-02-25T20:07:07.175Z,51.19
2023-02-25T20:08:07.152Z,47.49
2023-02-25T20:09:07.134Z,47.44
2023-02-25T20:10:07.656Z,46.65
2023-02-25T20:11:07.087Z,46.91
2023-02-25T20:12:07.046Z,48.44
2023-02-25T20:13:07.042Z,47.77
2023-02-25T20:14:07.044Z,51.68
2023-02-25T20:15:07.027Z,47.95
2023-02-25T20:16:07.227Z,49.13
2023-02-25T20:17:06.963Z,48.85
2023-02-25T20:18:06.958Z,49.89
2023-02-25T20:19:06.881Z,46.90
2023-02-25T20:20:06.873Z,47.53
2023-02-25T20:21:06.849Z,47.96
2023-02-25T20:22:06.812Z,49.47
2023-02-25T20:23:06.840Z,48.84
2023-02-25T20:24:06.772Z,45.09
2023-02-25T20:25:06.746Z,45.28
2023-02-25T20:26:06.816Z,46.57
2023-02-25T20:27:06.718Z,45.89
2023-02-25T20:28:06.689Z,46.32
2023-02-25T20:29:06.668Z,47.57
2023-02-25T20:30:06.761Z,46.40
2023-02-25T20:31:06.611Z,48.39
2023-02-25T20:32:06.720Z,46.81
2023-02-25T20:33:06.576Z,45.76
2023-02-25T20:34:06.621Z,44.36
2023-02-25T20:35:06.639Z,46.94
2023-02-25T20:36:06.514Z,46.94
2023-02-25T20:37:06.512Z,44.55
2023-02-25T20:38:06.466Z,46.97
2023-02-25T20:40:06.423Z,47.81
2023-02-25T20:41:06.399Z,45.02
2023-02-25T20:42:06.397Z,46.15
2023-02-25T20:43:06.411Z,44.99
2023-02-25T20:44:06.321Z,45.81
2023-02-25T20:45:06.308Z,46.88
2023-02-25T20:46:06.388Z,44.91
2023-02-25T20:47:06.280Z,44.55
2023-02-25T20:48:06.253Z,45.67
2023-02-25T20:49:06.313Z,47.64
2023-02-25T20:50:06.218Z,46.63
2023-02-25T20:51:06.184Z,43.38
2023-02-25T20:52:06.153Z,46.33
2023-02-25T20:53:06.126Z,47.06
2023-02-25T20:54:06.099Z,45.77
2023-02-25T20:55:06.893Z,42.70
2023-02-25T20:56:06.069Z,46.05
2023-02-25T20:57:06.035Z,44.12
2023-02-25T20:58:06.000Z,46.61
2023-02-25T20:59:05.975Z,45.80
2023-02-25T21:00:05.955Z,46.61
2023-02-25T21:53:04.753Z,44.50
2023-02-25T21:54:04.723Z,43.11
2023-02-25T21:55:04.717Z,41.22
2023-02-25T21:56:04.697Z,42.94
2023-02-25T21:57:04.686Z,39.71
2023-02-25T21:58:04.719Z,43.08
2023-02-25T21:59:04.641Z,42.63
2023-02-25T22:00:04.625Z,40.10
2023-02-25T22:01:04.719Z,40.33
2023-02-25T22:02:04.587Z,41.86
2023-02-25T22:03:04.590Z,39.30
2023-02-25T22:04:04.778Z,41.70
2023-02-25T22:05:04.541Z,42.24
2023-02-25T22:06:04.524Z,41.74
2023-02-25T22:07:04.512Z,43.09
2023-02-25T22:08:04.502Z,42.57
2023-02-25T22:09:04.483Z,40.07
2023-02-25T22:10:04.492Z,42.83
2023-02-25T22:11:04.458Z,42.67
2023-02-25T22:12:04.447Z,42.57
2023-02-25T22:13:04.454Z,41.77
2023-02-25T22:14:05.194Z,37.97
2023-02-25T22:15:04.395Z,41.50
2023-02-25T22:16:04.469Z,39.68
2023-02-25T22:17:04.379Z,41.25
2023-02-25T22:18:04.360Z,40.77
2023-02-25T22:19:04.357Z,42.61
2023-02-25T22:20:04.329Z,43.03
2023-02-25T22:21:04.303Z,40.56
2023-02-25T22:22:04.311Z,42.37
2023-02-25T22:23:04.279Z,43.06
2023-02-25T22:24:04.305Z,40.10
2023-02-25T22:25:04.263Z,39.57
2023-02-25T22:26:04.226Z,39.08
2023-02-25T22:27:04.237Z,40.67
2023-02-25T22:28:05.388Z,41.60
2023-02-25T22:29:04.212Z,40.33
2023-02-25T22:30:04.173Z,39.66
2023-02-25T22:31:04.231Z,40.08
2023-02-25T22:32:04.324Z,39.94
2023-02-25T22:33:04.132Z,39.92
2023-02-25T22:34:04.125Z,41.46
2023-02-25T22:35:04.112Z,39.64
2023-02-25T22:36:04.113Z,39.85
2023-02-25T22:37:04.077Z,41.06
2023-02-25T22:38:04.060Z,40.95
2023-02-25T22:39:04.037Z,39.64
2023-02-25T22:40:04.049Z,39.84
2023-02-25T22:41:04.702Z,38.93
2023-02-25T22:42:04.005Z,39.53
2023-02-25T22:43:03.982Z,40.96
2023-02-25T22:44:04.049Z,37.71
2023-02-25T22:45:03.963Z,40.61
2023-02-25T22:46:03.946Z,40.27
2023-02-25T22:47:03.930Z,40.47
2023-02-25T22:48:03.968Z,38.69
2023-02-25T22:49:03.920Z,37.06
2023-02-25T22:50:03.892Z,38.06
2023-02-25T22:51:03.895Z,41.76
2023-02-25T22:52:04.010Z,36.75
2023-02-25T22:53:03.866Z,40.21
2023-02-25T22:54:03.844Z,42.02
2023-02-25T22:55:03.832Z,37.53
